QAW809 YSSY-OTHH
Flight info
| Callsign | QAW809 |
|---|---|
| Flight time | N/A |
| Altitude | 34000 |
| Route | TESAT A576 PKS J141 LEC T21 WENER/N0501F360 T21 PD N509 TATOD/N0495F380 N509 ELATI N640 EGODU/N0491F400 N640 KAT P570 EMURU N563 SODEX/N0462F340 N563 UMIBU P899 TOVOX |
| Aircraft | A388/J-SADE2E3FGHIJ3J4J5M1RWXY/LB1D1 |
Departure
| Time | 2026-05-01 12:21 |
|---|---|
| Airport | Sydney Kingsford Smith International Airport (YSSY) |
Arrival
| Time | N/A |
|---|---|
| Airport | Hamad International Airport (OTHH) |
| Time | Latitude | Longitude | Altitude | Speed | Heading |
|---|---|---|---|---|---|
| 2026-05-01 11:53 | -33.94066 | 151.16382 | 26 ft | 0 kts | 43° |
| 2026-05-01 12:05 | -33.94067 | 151.16381 | 27 ft | 1 kts | 43° |
| 2026-05-01 12:05 | -33.94078 | 151.16367 | 32 ft | 2 kts | 51° |
| 2026-05-01 12:05 | -33.94084 | 151.16353 | 32 ft | 2 kts | 66° |
| 2026-05-01 12:06 | -33.94087 | 151.16339 | 32 ft | 2 kts | 81° |
| 2026-05-01 12:06 | -33.94087 | 151.16323 | 32 ft | 2 kts | 96° |
| 2026-05-01 12:06 | -33.94082 | 151.16309 | 32 ft | 2 kts | 117° |
| 2026-05-01 12:06 | -33.94073 | 151.16298 | 32 ft | 2 kts | 139° |
| 2026-05-01 12:07 | -33.94062 | 151.16291 | 32 ft | 2 kts | 158° |
| 2026-05-01 12:07 | -33.94049 | 151.16288 | 32 ft | 2 kts | 173° |
| 2026-05-01 12:07 | -33.94040 | 151.16288 | 30 ft | 0 kts | 183° |
| 2026-05-01 12:10 | -33.94049 | 151.16288 | 30 ft | 3 kts | 183° |
| 2026-05-01 12:11 | -33.94123 | 151.16293 | 29 ft | 6 kts | 156° |
| 2026-05-01 12:11 | -33.94162 | 151.16328 | 29 ft | 7 kts | 124° |
| 2026-05-01 12:11 | -33.94167 | 151.16385 | 28 ft | 9 kts | 80° |
| 2026-05-01 12:12 | -33.94148 | 151.16473 | 29 ft | 13 kts | 74° |
| 2026-05-01 12:12 | -33.94122 | 151.16584 | 28 ft | 15 kts | 74° |
| 2026-05-01 12:12 | -33.94093 | 151.16712 | 26 ft | 17 kts | 74° |
| 2026-05-01 12:12 | -33.94060 | 151.16852 | 28 ft | 18 kts | 74° |
| 2026-05-01 12:13 | -33.94024 | 151.17006 | 29 ft | 19 kts | 74° |
| 2026-05-01 12:13 | -33.93988 | 151.17152 | 26 ft | 16 kts | 73° |
| 2026-05-01 12:13 | -33.94023 | 151.17235 | 29 ft | 9 kts | 172° |
| 2026-05-01 12:13 | -33.94084 | 151.17250 | 27 ft | 10 kts | 166° |
| 2026-05-01 12:14 | -33.94157 | 151.17272 | 27 ft | 12 kts | 166° |
| 2026-05-01 12:14 | -33.94239 | 151.17295 | 27 ft | 12 kts | 167° |
| 2026-05-01 12:14 | -33.94319 | 151.17315 | 29 ft | 11 kts | 168° |
| 2026-05-01 12:14 | -33.94395 | 151.17335 | 31 ft | 11 kts | 168° |
| 2026-05-01 12:15 | -33.94475 | 151.17355 | 31 ft | 12 kts | 168° |
| 2026-05-01 12:15 | -33.94561 | 151.17377 | 31 ft | 13 kts | 168° |
| 2026-05-01 12:15 | -33.94651 | 151.17400 | 31 ft | 14 kts | 168° |
| 2026-05-01 12:15 | -33.94760 | 151.17430 | 28 ft | 18 kts | 167° |
| 2026-05-01 12:16 | -33.94885 | 151.17462 | 27 ft | 19 kts | 168° |
| 2026-05-01 12:16 | -33.95014 | 151.17496 | 28 ft | 18 kts | 168° |
| 2026-05-01 12:16 | -33.95138 | 151.17528 | 27 ft | 19 kts | 168° |
| 2026-05-01 12:16 | -33.95266 | 151.17562 | 26 ft | 19 kts | 168° |
| 2026-05-01 12:17 | -33.95385 | 151.17593 | 27 ft | 18 kts | 168° |
| 2026-05-01 12:17 | -33.95504 | 151.17623 | 28 ft | 17 kts | 168° |
| 2026-05-01 12:17 | -33.95615 | 151.17651 | 27 ft | 16 kts | 168° |
| 2026-05-01 12:17 | -33.95683 | 151.17669 | 29 ft | 15 kts | 168° |
| 2026-05-01 12:18 | -33.95784 | 151.17694 | 28 ft | 15 kts | 168° |
| 2026-05-01 12:18 | -33.95906 | 151.17726 | 27 ft | 19 kts | 168° |
| 2026-05-01 12:18 | -33.96032 | 151.17758 | 29 ft | 18 kts | 168° |
| 2026-05-01 12:18 | -33.96149 | 151.17788 | 28 ft | 17 kts | 167° |
| 2026-05-01 12:19 | -33.96270 | 151.17820 | 27 ft | 18 kts | 167° |
| 2026-05-01 12:19 | -33.96379 | 151.17850 | 28 ft | 15 kts | 164° |
| 2026-05-01 12:19 | -33.96438 | 151.17917 | 29 ft | 10 kts | 96° |
| 2026-05-01 12:19 | -33.96428 | 151.18004 | 29 ft | 10 kts | 75° |
| 2026-05-01 12:20 | -33.96397 | 151.18052 | 29 ft | 10 kts | 7° |
| 2026-05-01 12:20 | -33.96171 | 151.17994 | 29 ft | 68 kts | 348° |
| 2026-05-01 12:20 | -33.95482 | 151.17815 | 27 ft | 132 kts | 348° |
| 2026-05-01 12:20 | -33.94432 | 151.17546 | 30 ft | 173 kts | 348° |
| 2026-05-01 12:21 | -33.93208 | 151.17245 | 375 ft | 178 kts | 347° |
| 2026-05-01 12:21 | -33.92004 | 151.16960 | 948 ft | 174 kts | 348° |
| 2026-05-01 12:21 | -33.90838 | 151.16620 | 1463 ft | 174 kts | 342° |
| 2026-05-01 12:21 | -33.89862 | 151.15706 | 1750 ft | 190 kts | 304° |
| 2026-05-01 12:22 | -33.89498 | 151.14123 | 1907 ft | 207 kts | 271° |
| 2026-05-01 12:22 | -33.89617 | 151.12343 | 2046 ft | 218 kts | 269° |
| 2026-05-01 12:22 | -33.89527 | 151.10486 | 2118 ft | 226 kts | 283° |
| 2026-05-01 12:22 | -33.89050 | 151.08653 | 2210 ft | 242 kts | 296° |
| 2026-05-01 12:23 | -33.88238 | 151.06752 | 2432 ft | 260 kts | 303° |
| 2026-05-01 12:23 | -33.87289 | 151.04909 | 2934 ft | 262 kts | 305° |
| 2026-05-01 12:23 | -33.86282 | 151.03056 | 3392 ft | 268 kts | 306° |
| 2026-05-01 12:23 | -33.85254 | 151.01178 | 4054 ft | 267 kts | 306° |
| 2026-05-01 12:24 | -33.84452 | 150.99163 | 4673 ft | 272 kts | 286° |
| 2026-05-01 12:24 | -33.84040 | 150.96925 | 5317 ft | 274 kts | 285° |
| 2026-05-01 12:24 | -33.83627 | 150.94719 | 5926 ft | 276 kts | 286° |
| 2026-05-01 12:24 | -33.83188 | 150.92420 | 6539 ft | 278 kts | 286° |
| 2026-05-01 12:25 | -33.82753 | 150.90149 | 7121 ft | 280 kts | 287° |
| 2026-05-01 12:25 | -33.81865 | 150.85531 | 8248 ft | 286 kts | 286° |
| 2026-05-01 12:25 | -33.81415 | 150.83189 | 8817 ft | 289 kts | 286° |
| 2026-05-01 12:26 | -33.80970 | 150.80876 | 9384 ft | 291 kts | 285° |
| 2026-05-01 12:26 | -33.80040 | 150.76040 | 10496 ft | 297 kts | 285° |
| 2026-05-01 12:26 | -33.79571 | 150.73610 | 10703 ft | 312 kts | 285° |
| 2026-05-01 12:27 | -33.79066 | 150.70994 | 10844 ft | 327 kts | 285° |
| 2026-05-01 12:27 | -33.77997 | 150.65465 | 11316 ft | 348 kts | 284° |
| 2026-05-01 12:28 | -33.76895 | 150.59758 | 12369 ft | 352 kts | 284° |
| 2026-05-01 12:28 | -33.76337 | 150.56880 | 12905 ft | 355 kts | 284° |
| 2026-05-01 12:28 | -33.75207 | 150.51067 | 13996 ft | 359 kts | 284° |
| 2026-05-01 12:29 | -33.74635 | 150.48127 | 14527 ft | 362 kts | 284° |
| 2026-05-01 12:29 | -33.74060 | 150.45181 | 15019 ft | 364 kts | 284° |
| 2026-05-01 12:29 | -33.72893 | 150.39211 | 16065 ft | 369 kts | 284° |
| 2026-05-01 12:30 | -33.71716 | 150.33205 | 17116 ft | 374 kts | 284° |
| 2026-05-01 12:30 | -33.71112 | 150.30159 | 17651 ft | 376 kts | 285° |
| 2026-05-01 12:30 | -33.70320 | 150.27147 | 18139 ft | 379 kts | 288° |
| 2026-05-01 12:31 | -33.69489 | 150.24130 | 18677 ft | 382 kts | 288° |
| 2026-05-01 12:31 | -33.68660 | 150.21078 | 19140 ft | 384 kts | 288° |
| 2026-05-01 12:31 | -33.67832 | 150.18025 | 19627 ft | 385 kts | 288° |
| 2026-05-01 12:31 | -33.67001 | 150.14959 | 20104 ft | 387 kts | 288° |
| 2026-05-01 12:32 | -33.66164 | 150.11879 | 20550 ft | 389 kts | 288° |
| 2026-05-01 12:32 | -33.64506 | 150.05802 | 21438 ft | 393 kts | 289° |
| 2026-05-01 12:32 | -33.63649 | 150.02668 | 21888 ft | 395 kts | 289° |
| 2026-05-01 12:33 | -33.62788 | 149.99524 | 22330 ft | 398 kts | 289° |
| 2026-05-01 12:33 | -33.61921 | 149.96357 | 22796 ft | 400 kts | 289° |
| 2026-05-01 12:33 | -33.61047 | 149.93174 | 23203 ft | 403 kts | 289° |
| 2026-05-01 12:33 | -33.60167 | 149.89970 | 23648 ft | 405 kts | 289° |
| 2026-05-01 12:34 | -33.59282 | 149.86751 | 24074 ft | 408 kts | 289° |
| 2026-05-01 12:34 | -33.58389 | 149.83508 | 24461 ft | 409 kts | 289° |
| 2026-05-01 12:34 | -33.57506 | 149.80302 | 24821 ft | 412 kts | 289° |
| 2026-05-01 12:34 | -33.56604 | 149.77032 | 25207 ft | 414 kts | 289° |
| 2026-05-01 12:35 | -33.55695 | 149.73744 | 25589 ft | 416 kts | 288° |
| 2026-05-01 12:35 | -33.54783 | 149.70447 | 25951 ft | 418 kts | 288° |
| 2026-05-01 12:35 | -33.53866 | 149.67134 | 26305 ft | 420 kts | 288° |
| 2026-05-01 12:35 | -33.52944 | 149.63805 | 26682 ft | 422 kts | 288° |
| 2026-05-01 12:36 | -33.52015 | 149.60459 | 27025 ft | 424 kts | 288° |
| 2026-05-01 12:36 | -33.51082 | 149.57101 | 27379 ft | 426 kts | 288° |
| 2026-05-01 12:36 | -33.50144 | 149.53727 | 27726 ft | 428 kts | 288° |
| 2026-05-01 12:36 | -33.49201 | 149.50343 | 28066 ft | 430 kts | 288° |
| 2026-05-01 12:37 | -33.48250 | 149.46931 | 28383 ft | 432 kts | 288° |
| 2026-05-01 12:37 | -33.47293 | 149.43504 | 28722 ft | 434 kts | 288° |
| 2026-05-01 12:37 | -33.46334 | 149.40071 | 29032 ft | 436 kts | 287° |
| 2026-05-01 12:37 | -33.45370 | 149.36629 | 29349 ft | 437 kts | 287° |
| 2026-05-01 12:38 | -33.44410 | 149.33203 | 29651 ft | 439 kts | 287° |
| 2026-05-01 12:38 | -33.43438 | 149.29736 | 29948 ft | 441 kts | 287° |
| 2026-05-01 12:38 | -33.42457 | 149.26246 | 30248 ft | 443 kts | 287° |
| 2026-05-01 12:38 | -33.41475 | 149.22750 | 30522 ft | 444 kts | 287° |
| 2026-05-01 12:39 | -33.40487 | 149.19245 | 30809 ft | 444 kts | 287° |
| 2026-05-01 12:39 | -33.39498 | 149.15736 | 31073 ft | 445 kts | 287° |
| 2026-05-01 12:39 | -33.38508 | 149.12229 | 31335 ft | 445 kts | 287° |
| 2026-05-01 12:39 | -33.37513 | 149.08707 | 31594 ft | 446 kts | 287° |
| 2026-05-01 12:40 | -33.36518 | 149.05188 | 31832 ft | 447 kts | 287° |
| 2026-05-01 12:40 | -33.35521 | 149.01672 | 32066 ft | 448 kts | 287° |
| 2026-05-01 12:40 | -33.34521 | 148.98144 | 32299 ft | 448 kts | 287° |
| 2026-05-01 12:40 | -33.33517 | 148.94612 | 32548 ft | 449 kts | 287° |
| 2026-05-01 12:41 | -33.32511 | 148.91075 | 32775 ft | 450 kts | 287° |
| 2026-05-01 12:41 | -33.31501 | 148.87526 | 33002 ft | 451 kts | 287° |
| 2026-05-01 12:41 | -33.30486 | 148.83963 | 33232 ft | 452 kts | 287° |
| 2026-05-01 12:41 | -33.29483 | 148.80451 | 33434 ft | 453 kts | 287° |
| 2026-05-01 12:42 | -33.28465 | 148.76886 | 33634 ft | 454 kts | 288° |
| 2026-05-01 12:42 | -33.27442 | 148.73310 | 33839 ft | 456 kts | 288° |
| 2026-05-01 12:42 | -33.26415 | 148.69724 | 34040 ft | 457 kts | 288° |
| 2026-05-01 12:42 | -33.25381 | 148.66122 | 34245 ft | 458 kts | 288° |
| 2026-05-01 12:43 | -33.23293 | 148.58851 | 34319 ft | 468 kts | 288° |
| 2026-05-01 12:43 | -33.21171 | 148.51488 | 34320 ft | 467 kts | 288° |
| 2026-05-01 12:44 | -33.19051 | 148.44147 | 34315 ft | 468 kts | 288° |
| 2026-05-01 12:45 | -33.14812 | 148.29525 | 34294 ft | 467 kts | 288° |
| 2026-05-01 12:45 | -33.12765 | 148.22174 | 34310 ft | 465 kts | 283° |
| 2026-05-01 12:46 | -33.11180 | 148.14695 | 34299 ft | 465 kts | 283° |
| 2026-05-01 12:46 | -33.09589 | 148.07223 | 34300 ft | 465 kts | 283° |
| 2026-05-01 12:47 | -33.07991 | 147.99756 | 34300 ft | 464 kts | 283° |
| 2026-05-01 12:47 | -33.06388 | 147.92302 | 34303 ft | 463 kts | 283° |
| 2026-05-01 12:48 | -33.04793 | 147.84916 | 34295 ft | 462 kts | 283° |
| 2026-05-01 12:48 | -33.03184 | 147.77497 | 34299 ft | 461 kts | 283° |
| 2026-05-01 12:49 | -33.01575 | 147.70097 | 34300 ft | 460 kts | 283° |
| 2026-05-01 12:49 | -32.99968 | 147.62726 | 34287 ft | 459 kts | 283° |
| 2026-05-01 12:50 | -32.98359 | 147.55373 | 34285 ft | 458 kts | 283° |
| 2026-05-01 12:50 | -32.96748 | 147.48036 | 34285 ft | 457 kts | 283° |
| 2026-05-01 12:51 | -32.95139 | 147.40727 | 34285 ft | 456 kts | 284° |
| 2026-05-01 12:52 | -32.92729 | 147.29818 | 34256 ft | 455 kts | 284° |
| 2026-05-01 12:52 | -32.90300 | 147.18877 | 34250 ft | 456 kts | 284° |
| 2026-05-01 12:53 | -32.87861 | 147.07934 | 34251 ft | 456 kts | 284° |
| 2026-05-01 12:54 | -32.86236 | 147.00673 | 34253 ft | 457 kts | 284° |
| 2026-05-01 12:54 | -32.83772 | 146.89701 | 34253 ft | 458 kts | 284° |
| 2026-05-01 12:55 | -32.81293 | 146.78716 | 34272 ft | 459 kts | 284° |
| 2026-05-01 12:56 | -32.79633 | 146.71385 | 34281 ft | 459 kts | 284° |
| 2026-05-01 12:56 | -32.77968 | 146.64053 | 34289 ft | 459 kts | 284° |
| 2026-05-01 12:57 | -32.76299 | 146.56727 | 34285 ft | 459 kts | 284° |
| 2026-05-01 12:57 | -32.73804 | 146.45813 | 34282 ft | 457 kts | 284° |
| 2026-05-01 12:58 | -32.72132 | 146.38526 | 34279 ft | 456 kts | 284° |
| 2026-05-01 12:59 | -32.69624 | 146.27631 | 34276 ft | 454 kts | 284° |
| 2026-05-01 12:59 | -32.67117 | 146.16789 | 34260 ft | 453 kts | 284° |
| 2026-05-01 13:00 | -32.64619 | 146.06035 | 34258 ft | 451 kts | 284° |
| 2026-05-01 13:01 | -32.62115 | 145.95295 | 34250 ft | 449 kts | 284° |
| 2026-05-01 13:02 | -32.59606 | 145.84585 | 34234 ft | 449 kts | 284° |
| 2026-05-01 13:07 | -32.41317 | 145.07807 | 34224 ft | 446 kts | 284° |
| 2026-05-01 13:08 | -32.39612 | 145.00762 | 34229 ft | 445 kts | 284° |
| 2026-05-01 13:08 | -32.37901 | 144.93712 | 34225 ft | 445 kts | 284° |
| 2026-05-01 13:09 | -32.36199 | 144.86720 | 34220 ft | 444 kts | 284° |
| 2026-05-01 13:09 | -32.34486 | 144.79700 | 34220 ft | 444 kts | 284° |
| 2026-05-01 13:10 | -32.32772 | 144.72693 | 34212 ft | 443 kts | 284° |
| 2026-05-01 13:10 | -32.31056 | 144.65696 | 34209 ft | 443 kts | 284° |
| 2026-05-01 13:11 | -32.29336 | 144.58703 | 34207 ft | 442 kts | 284° |
| 2026-05-01 13:11 | -32.27613 | 144.51716 | 34207 ft | 442 kts | 284° |
| 2026-05-01 13:12 | -32.25890 | 144.44744 | 34201 ft | 442 kts | 285° |
| 2026-05-01 13:12 | -32.24176 | 144.37827 | 34199 ft | 441 kts | 285° |
| 2026-05-01 13:13 | -32.22447 | 144.30871 | 34197 ft | 441 kts | 285° |
| 2026-05-01 13:13 | -32.20715 | 144.23921 | 34192 ft | 441 kts | 285° |
| 2026-05-01 13:14 | -32.18982 | 144.16982 | 34184 ft | 440 kts | 285° |
| 2026-05-01 13:14 | -32.17245 | 144.10046 | 34189 ft | 440 kts | 285° |
| 2026-05-01 13:15 | -32.15510 | 144.03134 | 34190 ft | 439 kts | 285° |
| 2026-05-01 13:15 | -32.13771 | 143.96224 | 34169 ft | 438 kts | 285° |
| 2026-05-01 13:16 | -32.12041 | 143.89368 | 34169 ft | 438 kts | 285° |
| 2026-05-01 13:16 | -32.10301 | 143.82490 | 34167 ft | 437 kts | 285° |
| 2026-05-01 13:17 | -32.06815 | 143.68761 | 34182 ft | 436 kts | 285° |
| 2026-05-01 13:18 | -32.04215 | 143.58546 | 34174 ft | 435 kts | 285° |
| 2026-05-01 13:18 | -32.02472 | 143.51716 | 34164 ft | 434 kts | 285° |
| 2026-05-01 13:19 | -32.00718 | 143.44909 | 34162 ft | 434 kts | 286° |
| 2026-05-01 13:20 | -31.98100 | 143.34753 | 34153 ft | 433 kts | 286° |
| 2026-05-01 13:20 | -31.96349 | 143.27966 | 34156 ft | 433 kts | 286° |
| 2026-05-01 13:21 | -31.93716 | 143.17795 | 34149 ft | 432 kts | 286° |
| 2026-05-01 13:21 | -31.91960 | 143.11033 | 34150 ft | 432 kts | 286° |
| 2026-05-01 13:22 | -31.90211 | 143.04318 | 34149 ft | 431 kts | 286° |
| 2026-05-01 13:22 | -31.88450 | 142.97569 | 34154 ft | 431 kts | 286° |
| 2026-05-01 13:23 | -31.86686 | 142.90826 | 34148 ft | 430 kts | 286° |
| 2026-05-01 13:23 | -31.84919 | 142.84089 | 34146 ft | 430 kts | 286° |
| 2026-05-01 13:24 | -31.83153 | 142.77372 | 34146 ft | 429 kts | 287° |
| 2026-05-01 13:25 | -31.80502 | 142.67316 | 34145 ft | 429 kts | 287° |
| 2026-05-01 13:25 | -31.78743 | 142.60663 | 34146 ft | 428 kts | 287° |
| 2026-05-01 13:26 | -31.76972 | 142.53980 | 34140 ft | 428 kts | 287° |
| 2026-05-01 13:26 | -31.75196 | 142.47297 | 34138 ft | 428 kts | 287° |
| 2026-05-01 13:27 | -31.73421 | 142.40631 | 34134 ft | 427 kts | 287° |
| 2026-05-01 13:27 | -31.70751 | 142.30631 | 34132 ft | 427 kts | 287° |
| 2026-05-01 13:28 | -31.68089 | 142.20700 | 34125 ft | 426 kts | 287° |
| 2026-05-01 13:29 | -31.64519 | 142.07432 | 34124 ft | 426 kts | 287° |
| 2026-05-01 13:31 | -31.59140 | 141.87558 | 34122 ft | 425 kts | 287° |
| 2026-05-01 13:32 | -31.54646 | 141.71057 | 34122 ft | 424 kts | 288° |
| 2026-05-01 13:33 | -31.50151 | 141.54644 | 34118 ft | 423 kts | 288° |
| 2026-05-01 13:34 | -31.46541 | 141.41527 | 34113 ft | 422 kts | 288° |
| 2026-05-01 13:35 | -31.43826 | 141.31705 | 34107 ft | 422 kts | 288° |
| 2026-05-01 13:36 | -31.41109 | 141.21907 | 34094 ft | 421 kts | 288° |
| 2026-05-01 13:36 | -31.38406 | 141.12191 | 34088 ft | 420 kts | 288° |
| 2026-05-01 13:37 | -31.36593 | 141.05688 | 34085 ft | 419 kts | 288° |
| 2026-05-01 13:37 | -31.34781 | 140.99198 | 34082 ft | 419 kts | 288° |
| 2026-05-01 13:38 | -31.32047 | 140.89537 | 34074 ft | 418 kts | 288° |
| 2026-05-01 13:39 | -31.30219 | 140.83073 | 34078 ft | 418 kts | 288° |
| 2026-05-01 13:39 | -31.28387 | 140.76608 | 34075 ft | 418 kts | 288° |
| 2026-05-01 13:40 | -31.26568 | 140.70208 | 34075 ft | 417 kts | 288° |
| 2026-05-01 13:40 | -31.24734 | 140.63765 | 34069 ft | 417 kts | 288° |
| 2026-05-01 13:41 | -31.22897 | 140.57329 | 34072 ft | 417 kts | 288° |
| 2026-05-01 13:41 | -31.21056 | 140.50893 | 34068 ft | 417 kts | 289° |
| 2026-05-01 13:42 | -31.19214 | 140.44465 | 34068 ft | 417 kts | 289° |
| 2026-05-01 13:42 | -31.17380 | 140.38078 | 34068 ft | 417 kts | 289° |
| 2026-05-01 13:43 | -31.15534 | 140.31664 | 34068 ft | 416 kts | 289° |
| 2026-05-01 13:43 | -31.13685 | 140.25253 | 34066 ft | 416 kts | 289° |
| 2026-05-01 13:44 | -31.11833 | 140.18846 | 34063 ft | 416 kts | 289° |
| 2026-05-01 13:44 | -31.09993 | 140.12491 | 34060 ft | 416 kts | 289° |
| 2026-05-01 13:45 | -31.08140 | 140.06108 | 34060 ft | 415 kts | 289° |
| 2026-05-01 13:45 | -31.06283 | 139.99722 | 34053 ft | 415 kts | 289° |
| 2026-05-01 13:46 | -31.04427 | 139.93355 | 34051 ft | 414 kts | 289° |
| 2026-05-01 13:46 | -31.02570 | 139.86997 | 34052 ft | 414 kts | 289° |
| 2026-05-01 13:47 | -31.00712 | 139.80645 | 34046 ft | 413 kts | 289° |
| 2026-05-01 13:47 | -30.98864 | 139.74345 | 34045 ft | 413 kts | 289° |
| 2026-05-01 13:48 | -30.97005 | 139.68019 | 34044 ft | 412 kts | 289° |
| 2026-05-01 13:48 | -30.95142 | 139.61691 | 34046 ft | 412 kts | 289° |
| 2026-05-01 13:49 | -30.93281 | 139.55385 | 34044 ft | 411 kts | 289° |
| 2026-05-01 13:49 | -30.91417 | 139.49080 | 34044 ft | 411 kts | 289° |
| 2026-05-01 13:50 | -30.89557 | 139.42799 | 34043 ft | 410 kts | 290° |
| 2026-05-01 13:50 | -30.87706 | 139.36564 | 34043 ft | 410 kts | 290° |
| 2026-05-01 13:51 | -30.85840 | 139.30291 | 34048 ft | 409 kts | 290° |
| 2026-05-01 13:51 | -30.83978 | 139.24044 | 34051 ft | 408 kts | 290° |
| 2026-05-01 13:52 | -30.82114 | 139.17801 | 34058 ft | 407 kts | 290° |
| 2026-05-01 13:52 | -30.80249 | 139.11570 | 34045 ft | 407 kts | 290° |
| 2026-05-01 13:53 | -30.78700 | 139.06403 | 34066 ft | 407 kts | 290° |
| 2026-05-01 13:53 | -30.75903 | 138.97095 | 34072 ft | 406 kts | 290° |
| 2026-05-01 13:54 | -30.74038 | 138.90903 | 34070 ft | 405 kts | 290° |
| 2026-05-01 13:54 | -30.72174 | 138.84726 | 34055 ft | 405 kts | 290° |
| 2026-05-01 13:55 | -30.70320 | 138.78595 | 34049 ft | 404 kts | 290° |
| 2026-05-01 13:55 | -30.68452 | 138.72428 | 34046 ft | 404 kts | 290° |
| 2026-05-01 13:56 | -30.66581 | 138.66266 | 34047 ft | 404 kts | 290° |
| 2026-05-01 13:56 | -30.64708 | 138.60107 | 34038 ft | 404 kts | 290° |
| 2026-05-01 13:57 | -30.62831 | 138.53947 | 34035 ft | 404 kts | 290° |
| 2026-05-01 13:57 | -30.60957 | 138.47805 | 34022 ft | 404 kts | 290° |
| 2026-05-01 13:58 | -30.58883 | 138.41750 | 34015 ft | 403 kts | 295° |
| 2026-05-01 13:58 | -30.56506 | 138.35907 | 34007 ft | 403 kts | 295° |
| 2026-05-01 13:59 | -30.54139 | 138.30009 | 34011 ft | 403 kts | 295° |
| 2026-05-01 13:59 | -30.51763 | 138.24106 | 34014 ft | 403 kts | 295° |
| 2026-05-01 14:00 | -30.49397 | 138.18245 | 34002 ft | 403 kts | 295° |
| 2026-05-01 14:00 | -30.47016 | 138.12358 | 34021 ft | 402 kts | 295° |
| 2026-05-01 14:01 | -30.44640 | 138.06494 | 34002 ft | 401 kts | 295° |
| 2026-05-01 14:01 | -30.42267 | 138.00646 | 34000 ft | 401 kts | 295° |
| 2026-05-01 14:02 | -30.39888 | 137.94792 | 33990 ft | 401 kts | 295° |
| 2026-05-01 14:02 | -30.37512 | 137.88954 | 33994 ft | 400 kts | 295° |
| 2026-05-01 14:03 | -30.35148 | 137.83157 | 33991 ft | 400 kts | 295° |
| 2026-05-01 14:03 | -30.32771 | 137.77334 | 33984 ft | 400 kts | 295° |
| 2026-05-01 14:04 | -30.30394 | 137.71523 | 33987 ft | 399 kts | 295° |
| 2026-05-01 14:04 | -30.28014 | 137.65713 | 33980 ft | 399 kts | 295° |
| 2026-05-01 14:05 | -30.25636 | 137.59918 | 33975 ft | 399 kts | 295° |
| 2026-05-01 14:05 | -30.23257 | 137.54128 | 33975 ft | 398 kts | 295° |
| 2026-05-01 14:06 | -30.20877 | 137.48345 | 33974 ft | 398 kts | 295° |
| 2026-05-01 14:06 | -30.18510 | 137.42600 | 33976 ft | 397 kts | 295° |
| 2026-05-01 14:07 | -30.16131 | 137.36838 | 33970 ft | 397 kts | 295° |
| 2026-05-01 14:08 | -30.12558 | 137.28201 | 33971 ft | 396 kts | 295° |
| 2026-05-01 14:08 | -30.10174 | 137.22447 | 33971 ft | 396 kts | 295° |
| 2026-05-01 14:09 | -30.07811 | 137.16753 | 33973 ft | 395 kts | 295° |
| 2026-05-01 14:09 | -30.05431 | 137.11027 | 33971 ft | 395 kts | 295° |
| 2026-05-01 14:10 | -30.03055 | 137.05320 | 33973 ft | 394 kts | 295° |
| 2026-05-01 14:10 | -30.00678 | 136.99619 | 33973 ft | 394 kts | 295° |
| 2026-05-01 14:11 | -29.98303 | 136.93930 | 33964 ft | 393 kts | 295° |
| 2026-05-01 14:11 | -29.94742 | 136.85420 | 33963 ft | 392 kts | 295° |
| 2026-05-01 14:12 | -29.92371 | 136.79762 | 33958 ft | 392 kts | 295° |
| 2026-05-01 14:12 | -29.89997 | 136.74107 | 33958 ft | 391 kts | 295° |
| 2026-05-01 14:13 | -29.88023 | 136.69411 | 33954 ft | 391 kts | 295° |
| 2026-05-01 14:13 | -29.85252 | 136.62829 | 33961 ft | 390 kts | 295° |
| 2026-05-01 14:14 | -29.82895 | 136.57238 | 33956 ft | 390 kts | 295° |
| 2026-05-01 14:14 | -29.80525 | 136.51627 | 33955 ft | 389 kts | 295° |
| 2026-05-01 14:15 | -29.78158 | 136.46027 | 33945 ft | 389 kts | 295° |
| 2026-05-01 14:15 | -29.75788 | 136.40431 | 33946 ft | 388 kts | 295° |
| 2026-05-01 14:16 | -29.73417 | 136.34841 | 33943 ft | 388 kts | 295° |
| 2026-05-01 14:16 | -29.71049 | 136.29263 | 33942 ft | 388 kts | 295° |
| 2026-05-01 14:17 | -29.68680 | 136.23689 | 33940 ft | 387 kts | 295° |
| 2026-05-01 14:17 | -29.66313 | 136.18166 | 33942 ft | 387 kts | 295° |
| 2026-05-01 14:18 | -29.63925 | 136.12611 | 33939 ft | 387 kts | 295° |
| 2026-05-01 14:18 | -29.61945 | 136.08002 | 33938 ft | 387 kts | 295° |
| 2026-05-01 14:19 | -29.59158 | 136.01525 | 33941 ft | 386 kts | 295° |
| 2026-05-01 14:19 | -29.56772 | 135.95990 | 33945 ft | 386 kts | 295° |
| 2026-05-01 14:20 | -29.53198 | 135.87714 | 33942 ft | 385 kts | 295° |
| 2026-05-01 14:21 | -29.50827 | 135.82231 | 33938 ft | 384 kts | 295° |
| 2026-05-01 14:21 | -29.48443 | 135.76728 | 33937 ft | 384 kts | 295° |
| 2026-05-01 14:22 | -29.44874 | 135.68503 | 33933 ft | 383 kts | 295° |
| 2026-05-01 14:22 | -29.42506 | 135.63054 | 33932 ft | 383 kts | 295° |
| 2026-05-01 14:23 | -29.40127 | 135.57590 | 33930 ft | 383 kts | 295° |
| 2026-05-01 14:23 | -29.37746 | 135.52128 | 33926 ft | 382 kts | 295° |
| 2026-05-01 14:24 | -29.35367 | 135.46677 | 33922 ft | 382 kts | 295° |
| 2026-05-01 14:24 | -29.33000 | 135.41263 | 33923 ft | 381 kts | 295° |
| 2026-05-01 14:25 | -29.30618 | 135.35822 | 33922 ft | 381 kts | 295° |
| 2026-05-01 14:25 | -29.28242 | 135.30400 | 33927 ft | 381 kts | 295° |
| 2026-05-01 14:26 | -29.24667 | 135.22258 | 33924 ft | 381 kts | 295° |
| 2026-05-01 14:27 | -29.22300 | 135.16877 | 33924 ft | 381 kts | 295° |
| 2026-05-01 14:27 | -29.19903 | 135.11436 | 33923 ft | 380 kts | 295° |
| 2026-05-01 14:28 | -29.16338 | 135.03358 | 33923 ft | 380 kts | 295° |
| 2026-05-01 14:28 | -29.13949 | 134.97950 | 33928 ft | 380 kts | 295° |
| 2026-05-01 14:29 | -29.11560 | 134.92553 | 33929 ft | 380 kts | 295° |
| 2026-05-01 14:30 | -29.06776 | 134.81767 | 33938 ft | 380 kts | 295° |
| 2026-05-01 14:31 | -29.03194 | 134.73711 | 33934 ft | 380 kts | 295° |
| 2026-05-01 14:31 | -29.00781 | 134.68292 | 33935 ft | 380 kts | 295° |
| 2026-05-01 14:32 | -28.98396 | 134.62944 | 33937 ft | 380 kts | 295° |
| 2026-05-01 14:32 | -28.95988 | 134.57548 | 33941 ft | 380 kts | 295° |
| 2026-05-01 14:33 | -28.93583 | 134.52173 | 33937 ft | 380 kts | 295° |
| 2026-05-01 14:33 | -28.91168 | 134.46787 | 33937 ft | 380 kts | 295° |
| 2026-05-01 14:34 | -28.88771 | 134.41439 | 33938 ft | 381 kts | 295° |
| 2026-05-01 14:34 | -28.86358 | 134.36063 | 33941 ft | 381 kts | 295° |
| 2026-05-01 14:35 | -28.83938 | 134.30680 | 33947 ft | 381 kts | 295° |
| 2026-05-01 14:35 | -28.81519 | 134.25307 | 33946 ft | 381 kts | 295° |
| 2026-05-01 14:36 | -28.79093 | 134.19927 | 33949 ft | 381 kts | 295° |
| 2026-05-01 14:36 | -28.76669 | 134.14558 | 33946 ft | 381 kts | 295° |
| 2026-05-01 14:37 | -28.74241 | 134.09187 | 33948 ft | 381 kts | 295° |
| 2026-05-01 14:37 | -28.71829 | 134.03858 | 33944 ft | 381 kts | 295° |
| 2026-05-01 14:38 | -28.69399 | 133.98499 | 33940 ft | 381 kts | 296° |
| 2026-05-01 14:38 | -28.66966 | 133.93138 | 33940 ft | 381 kts | 296° |
| 2026-05-01 14:39 | -28.64944 | 133.88687 | 33943 ft | 381 kts | 296° |
| 2026-05-01 14:39 | -28.62510 | 133.83339 | 33947 ft | 380 kts | 296° |
| 2026-05-01 14:40 | -28.60075 | 133.77994 | 33948 ft | 380 kts | 296° |
| 2026-05-01 14:40 | -28.57637 | 133.72651 | 33947 ft | 380 kts | 296° |
| 2026-05-01 14:41 | -28.55197 | 133.67310 | 33940 ft | 380 kts | 296° |
| 2026-05-01 14:41 | -28.52761 | 133.61982 | 33933 ft | 379 kts | 296° |
| 2026-05-01 14:42 | -28.50322 | 133.56656 | 33929 ft | 379 kts | 296° |
| 2026-05-01 14:42 | -28.47885 | 133.51343 | 33933 ft | 379 kts | 296° |
| 2026-05-01 14:43 | -28.45443 | 133.46025 | 33937 ft | 379 kts | 296° |
| 2026-05-01 14:43 | -28.43014 | 133.40744 | 33927 ft | 379 kts | 296° |
| 2026-05-01 14:44 | -28.40568 | 133.35430 | 33933 ft | 379 kts | 296° |
| 2026-05-01 14:44 | -28.36893 | 133.27463 | 33930 ft | 380 kts | 296° |
| 2026-05-01 14:45 | -28.33221 | 133.19517 | 33939 ft | 380 kts | 296° |
| 2026-05-01 14:46 | -28.30759 | 133.14198 | 33947 ft | 380 kts | 296° |
| 2026-05-01 14:46 | -28.27069 | 133.06238 | 33957 ft | 380 kts | 296° |
| 2026-05-01 14:47 | -28.24603 | 133.00926 | 33954 ft | 380 kts | 295° |
| 2026-05-01 14:48 | -28.20902 | 132.92968 | 33959 ft | 380 kts | 295° |
| 2026-05-01 14:48 | -28.17200 | 132.85024 | 33952 ft | 379 kts | 295° |
| 2026-05-01 14:49 | -28.12280 | 132.74488 | 33950 ft | 379 kts | 295° |
| 2026-05-01 14:50 | -28.07338 | 132.63932 | 33961 ft | 379 kts | 295° |
| 2026-05-01 14:51 | -28.03620 | 132.56011 | 33961 ft | 379 kts | 295° |
| 2026-05-01 14:52 | -27.99923 | 132.48147 | 33952 ft | 379 kts | 295° |
| 2026-05-01 14:53 | -27.96206 | 132.40255 | 33946 ft | 380 kts | 296° |
| 2026-05-01 14:53 | -27.93718 | 132.34982 | 33946 ft | 380 kts | 296° |
| 2026-05-01 14:54 | -27.91227 | 132.29709 | 33950 ft | 381 kts | 296° |
| 2026-05-01 14:54 | -27.88724 | 132.24418 | 33951 ft | 381 kts | 296° |
| 2026-05-01 14:55 | -27.86214 | 132.19118 | 33953 ft | 382 kts | 296° |
| 2026-05-01 14:55 | -27.83719 | 132.13855 | 33953 ft | 383 kts | 296° |
| 2026-05-01 14:56 | -27.81195 | 132.08540 | 33955 ft | 384 kts | 296° |
| 2026-05-01 14:56 | -27.78661 | 132.03210 | 33959 ft | 385 kts | 296° |
| 2026-05-01 14:57 | -27.76123 | 131.97878 | 33966 ft | 386 kts | 296° |
| 2026-05-01 14:57 | -27.72303 | 131.89859 | 33958 ft | 387 kts | 296° |
| 2026-05-01 14:58 | -27.69761 | 131.84541 | 33965 ft | 387 kts | 296° |
| 2026-05-01 14:58 | -27.67195 | 131.79187 | 33965 ft | 388 kts | 296° |
| 2026-05-01 14:59 | -27.64625 | 131.73818 | 33964 ft | 389 kts | 296° |
| 2026-05-01 14:59 | -27.62051 | 131.68446 | 33966 ft | 389 kts | 296° |
| 2026-05-01 15:00 | -27.58200 | 131.60426 | 33969 ft | 389 kts | 296° |
| 2026-05-01 15:01 | -27.55617 | 131.55056 | 33989 ft | 389 kts | 296° |
| 2026-05-01 15:01 | -27.53032 | 131.49688 | 33970 ft | 389 kts | 296° |
| 2026-05-01 15:02 | -27.50444 | 131.44322 | 33965 ft | 389 kts | 296° |
| 2026-05-01 15:02 | -27.47874 | 131.38999 | 33971 ft | 389 kts | 296° |
| 2026-05-01 15:03 | -27.45288 | 131.33650 | 33962 ft | 389 kts | 296° |
| 2026-05-01 15:03 | -27.42698 | 131.28300 | 33960 ft | 389 kts | 296° |
| 2026-05-01 15:04 | -27.40106 | 131.22951 | 33954 ft | 389 kts | 296° |
| 2026-05-01 15:04 | -27.37515 | 131.17612 | 33958 ft | 389 kts | 296° |
| 2026-05-01 15:05 | -27.34929 | 131.12290 | 33958 ft | 389 kts | 296° |
| 2026-05-01 15:05 | -27.32335 | 131.06957 | 33953 ft | 389 kts | 296° |
| 2026-05-01 15:06 | -27.29738 | 131.01626 | 33958 ft | 389 kts | 296° |
| 2026-05-01 15:06 | -27.27136 | 130.96291 | 33953 ft | 389 kts | 296° |
| 2026-05-01 15:07 | -27.24532 | 130.90959 | 33958 ft | 389 kts | 296° |
| 2026-05-01 15:07 | -27.21942 | 130.85661 | 33958 ft | 389 kts | 296° |
| 2026-05-01 15:08 | -27.19332 | 130.80330 | 33966 ft | 389 kts | 296° |
| 2026-05-01 15:08 | -27.16717 | 130.74995 | 33967 ft | 390 kts | 296° |
| 2026-05-01 15:09 | -27.14094 | 130.69649 | 33963 ft | 390 kts | 296° |
| 2026-05-01 15:09 | -27.11486 | 130.64341 | 33967 ft | 390 kts | 296° |
| 2026-05-01 15:10 | -27.08861 | 130.59005 | 33967 ft | 390 kts | 296° |
| 2026-05-01 15:10 | -27.04921 | 130.51009 | 33985 ft | 390 kts | 296° |
| 2026-05-01 15:11 | -27.00986 | 130.43038 | 33985 ft | 391 kts | 297° |
| 2026-05-01 15:12 | -26.98353 | 130.37713 | 33978 ft | 390 kts | 297° |
| 2026-05-01 15:12 | -26.94392 | 130.29712 | 33982 ft | 391 kts | 297° |
| 2026-05-01 15:14 | -26.87782 | 130.16397 | 33977 ft | 391 kts | 297° |
| 2026-05-01 15:14 | -26.83822 | 130.08438 | 33988 ft | 392 kts | 297° |
| 2026-05-01 15:15 | -26.78502 | 129.97768 | 33996 ft | 393 kts | 297° |
| 2026-05-01 15:16 | -26.73160 | 129.87082 | 33998 ft | 394 kts | 297° |
| 2026-05-01 15:18 | -26.66458 | 129.73710 | 34008 ft | 394 kts | 297° |
| 2026-05-01 15:19 | -26.61105 | 129.63061 | 34002 ft | 394 kts | 297° |
| 2026-05-01 15:19 | -26.57070 | 129.55049 | 34000 ft | 395 kts | 297° |
| 2026-05-01 15:20 | -26.53022 | 129.47026 | 34003 ft | 395 kts | 296° |
| 2026-05-01 15:21 | -26.50336 | 129.41711 | 33998 ft | 395 kts | 296° |
| 2026-05-01 15:21 | -26.47630 | 129.36362 | 34005 ft | 395 kts | 296° |
| 2026-05-01 15:22 | -26.43564 | 129.28337 | 34002 ft | 396 kts | 296° |
| 2026-05-01 15:22 | -26.40847 | 129.22984 | 34004 ft | 396 kts | 296° |
| 2026-05-01 15:23 | -26.38141 | 129.17658 | 34007 ft | 396 kts | 296° |
| 2026-05-01 15:23 | -26.35420 | 129.12309 | 34011 ft | 396 kts | 296° |
| 2026-05-01 15:24 | -26.32694 | 129.06956 | 34009 ft | 397 kts | 296° |
| 2026-05-01 15:24 | -26.29967 | 129.01607 | 34011 ft | 397 kts | 296° |
| 2026-05-01 15:25 | -26.27252 | 128.96283 | 34009 ft | 397 kts | 296° |
| 2026-05-01 15:25 | -26.24496 | 128.90901 | 34007 ft | 397 kts | 296° |
| 2026-05-01 15:26 | -26.21767 | 128.85586 | 34012 ft | 398 kts | 296° |
| 2026-05-01 15:26 | -26.19023 | 128.80233 | 34010 ft | 398 kts | 296° |
| 2026-05-01 15:27 | -26.16281 | 128.74886 | 34012 ft | 398 kts | 296° |
| 2026-05-01 15:28 | -26.12623 | 128.67761 | 34006 ft | 398 kts | 296° |
| 2026-05-01 15:28 | -26.09875 | 128.62417 | 34006 ft | 398 kts | 296° |
| 2026-05-01 15:29 | -26.05745 | 128.54401 | 34002 ft | 398 kts | 296° |
| 2026-05-01 15:30 | -26.00694 | 128.44621 | 34006 ft | 398 kts | 296° |
| 2026-05-01 15:31 | -25.91944 | 128.27725 | 34002 ft | 399 kts | 296° |
| 2026-05-01 15:32 | -25.86387 | 128.17029 | 33998 ft | 400 kts | 296° |
| 2026-05-01 15:34 | -25.78036 | 128.01000 | 34008 ft | 402 kts | 296° |